sensor_id;sensor_type;location;lat;lon;timestamp;P1;durP1;ratioP1;P2;durP2;ratioP2
58784;SDS011;44557;51.862;19.378;2024-03-17T00:00:33;11.30;;;4.10;;
58784;SDS011;44557;51.862;19.378;2024-03-17T00:02:49;9.50;;;4.00;;
58784;SDS011;44557;51.862;19.378;2024-03-17T00:05:29;9.10;;;4.20;;
58784;SDS011;44557;51.862;19.378;2024-03-17T00:07:51;7.80;;;4.00;;
58784;SDS011;44557;51.862;19.378;2024-03-17T00:10:13;9.20;;;3.80;;
58784;SDS011;44557;51.862;19.378;2024-03-17T00:12:36;9.20;;;3.70;;
58784;SDS011;44557;51.862;19.378;2024-03-17T00:15:05;8.40;;;4.10;;
58784;SDS011;44557;51.862;19.378;2024-03-17T00:17:21;8.90;;;3.80;;
58784;SDS011;44557;51.862;19.378;2024-03-17T00:19:35;8.70;;;3.90;;
58784;SDS011;44557;51.862;19.378;2024-03-17T00:21:50;10.30;;;4.50;;
58784;SDS011;44557;51.862;19.378;2024-03-17T00:24:05;8.70;;;3.80;;
58784;SDS011;44557;51.862;19.378;2024-03-17T00:26:21;8.80;;;4.10;;
58784;SDS011;44557;51.862;19.378;2024-03-17T00:28:42;11.20;;;4.80;;
58784;SDS011;44557;51.862;19.378;2024-03-17T00:31:26;12.00;;;4.90;;
58784;SDS011;44557;51.862;19.378;2024-03-17T00:33:41;10.20;;;4.00;;
58784;SDS011;44557;51.862;19.378;2024-03-17T00:35:55;9.30;;;3.70;;
58784;SDS011;44557;51.862;19.378;2024-03-17T00:38:13;9.40;;;4.40;;
58784;SDS011;44557;51.862;19.378;2024-03-17T00:40:28;10.10;;;3.70;;
58784;SDS011;44557;51.862;19.378;2024-03-17T00:43:09;11.30;;;4.10;;
58784;SDS011;44557;51.862;19.378;2024-03-17T00:45:33;10.80;;;4.30;;
58784;SDS011;44557;51.862;19.378;2024-03-17T00:47:55;10.60;;;4.00;;
58784;SDS011;44557;51.862;19.378;2024-03-17T00:50:19;10.80;;;4.10;;
58784;SDS011;44557;51.862;19.378;2024-03-17T00:52:40;9.20;;;4.40;;
58784;SDS011;44557;51.862;19.378;2024-03-17T00:55:04;10.70;;;4.10;;
58784;SDS011;44557;51.862;19.378;2024-03-17T00:57:25;9.00;;;3.70;;
58784;SDS011;44557;51.862;19.378;2024-03-17T00:59:47;10.30;;;4.10;;
58784;SDS011;44557;51.862;19.378;2024-03-17T01:02:13;13.00;;;4.20;;
58784;SDS011;44557;51.862;19.378;2024-03-17T01:15:03;10.40;;;4.50;;
58784;SDS011;44557;51.862;19.378;2024-03-17T01:17:22;10.10;;;4.50;;
58784;SDS011;44557;51.862;19.378;2024-03-17T01:19:46;11.70;;;4.90;;
58784;SDS011;44557;51.862;19.378;2024-03-17T01:22:11;12.00;;;4.60;;
58784;SDS011;44557;51.862;19.378;2024-03-17T01:24:33;10.30;;;4.50;;
58784;SDS011;44557;51.862;19.378;2024-03-17T01:26:59;10.90;;;5.30;;
58784;SDS011;44557;51.862;19.378;2024-03-17T01:29:18;9.30;;;4.60;;
58784;SDS011;44557;51.862;19.378;2024-03-17T01:31:40;12.10;;;4.80;;
58784;SDS011;44557;51.862;19.378;2024-03-17T01:34:02;11.10;;;5.00;;
58784;SDS011;44557;51.862;19.378;2024-03-17T01:36:22;10.20;;;5.00;;
58784;SDS011;44557;51.862;19.378;2024-03-17T01:38:46;10.00;;;4.80;;
58784;SDS011;44557;51.862;19.378;2024-03-17T01:41:22;11.60;;;5.10;;
58784;SDS011;44557;51.862;19.378;2024-03-17T01:43:44;10.80;;;5.10;;
58784;SDS011;44557;51.862;19.378;2024-03-17T01:46:10;11.50;;;5.70;;
58784;SDS011;44557;51.862;19.378;2024-03-17T01:48:29;9.50;;;5.10;;
58784;SDS011;44557;51.862;19.378;2024-03-17T01:50:52;10.50;;;5.20;;
58784;SDS011;44557;51.862;19.378;2024-03-17T01:53:13;10.30;;;4.50;;
58784;SDS011;44557;51.862;19.378;2024-03-17T01:55:39;11.90;;;5.00;;
58784;SDS011;44557;51.862;19.378;2024-03-17T01:58:01;11.20;;;5.00;;
58784;SDS011;44557;51.862;19.378;2024-03-17T02:00:24;12.10;;;4.80;;
58784;SDS011;44557;51.862;19.378;2024-03-17T02:02:45;11.00;;;5.10;;
58784;SDS011;44557;51.862;19.378;2024-03-17T02:05:06;9.40;;;4.50;;
58784;SDS011;44557;51.862;19.378;2024-03-17T02:07:28;11.70;;;5.10;;
58784;SDS011;44557;51.862;19.378;2024-03-17T02:09:49;10.50;;;4.60;;
58784;SDS011;44557;51.862;19.378;2024-03-17T02:12:11;13.50;;;5.50;;
58784;SDS011;44557;51.862;19.378;2024-03-17T02:14:33;10.30;;;4.90;;
58784;SDS011;44557;51.862;19.378;2024-03-17T02:16:54;12.00;;;5.00;;
58784;SDS011;44557;51.862;19.378;2024-03-17T02:19:35;11.30;;;5.30;;
58784;SDS011;44557;51.862;19.378;2024-03-17T02:21:57;11.30;;;5.20;;
58784;SDS011;44557;51.862;19.378;2024-03-17T02:24:19;10.60;;;5.20;;
58784;SDS011;44557;51.862;19.378;2024-03-17T02:26:41;11.60;;;5.50;;
58784;SDS011;44557;51.862;19.378;2024-03-17T02:29:05;12.20;;;5.20;;
58784;SDS011;44557;51.862;19.378;2024-03-17T02:31:27;10.50;;;5.00;;
58784;SDS011;44557;51.862;19.378;2024-03-17T02:33:49;11.10;;;5.40;;
58784;SDS011;44557;51.862;19.378;2024-03-17T02:36:11;13.10;;;5.70;;
58784;SDS011;44557;51.862;19.378;2024-03-17T02:38:33;9.90;;;4.50;;
58784;SDS011;44557;51.862;19.378;2024-03-17T02:40:54;15.50;;;5.50;;
58784;SDS011;44557;51.862;19.378;2024-03-17T02:43:16;12.10;;;4.60;;
58784;SDS011;44557;51.862;19.378;2024-03-17T02:45:40;11.20;;;4.60;;
58784;SDS011;44557;51.862;19.378;2024-03-17T02:48:05;10.90;;;4.60;;
58784;SDS011;44557;51.862;19.378;2024-03-17T02:50:30;15.50;;;5.50;;
58784;SDS011;44557;51.862;19.378;2024-03-17T02:52:55;10.70;;;4.90;;
58784;SDS011;44557;51.862;19.378;2024-03-17T02:55:16;9.30;;;4.20;;
58784;SDS011;44557;51.862;19.378;2024-03-17T02:57:38;11.40;;;4.20;;
58784;SDS011;44557;51.862;19.378;2024-03-17T02:59:59;10.10;;;4.00;;
58784;SDS011;44557;51.862;19.378;2024-03-17T03:02:21;12.70;;;4.10;;
58784;SDS011;44557;51.862;19.378;2024-03-17T03:04:43;11.30;;;4.40;;
58784;SDS011;44557;51.862;19.378;2024-03-17T03:07:08;10.80;;;3.90;;
58784;SDS011;44557;51.862;19.378;2024-03-17T03:09:33;12.80;;;4.10;;
58784;SDS011;44557;51.862;19.378;2024-03-17T03:11:55;9.70;;;4.20;;
58784;SDS011;44557;51.862;19.378;2024-03-17T03:14:17;12.10;;;4.60;;
58784;SDS011;44557;51.862;19.378;2024-03-17T03:16:40;10.20;;;4.30;;
58784;SDS011;44557;51.862;19.378;2024-03-17T03:21:42;9.50;;;4.40;;
58784;SDS011;44557;51.862;19.378;2024-03-17T03:24:04;11.60;;;4.10;;
58784;SDS011;44557;51.862;19.378;2024-03-17T03:26:26;10.90;;;4.70;;
58784;SDS011;44557;51.862;19.378;2024-03-17T03:29:07;10.70;;;4.50;;
58784;SDS011;44557;51.862;19.378;2024-03-17T03:52:21;9.50;;;3.90;;
58784;SDS011;44557;51.862;19.378;2024-03-17T03:54:41;11.20;;;4.20;;
58784;SDS011;44557;51.862;19.378;2024-03-17T03:57:06;11.10;;;3.90;;
58784;SDS011;44557;51.862;19.378;2024-03-17T03:59:28;12.70;;;5.20;;
58784;SDS011;44557;51.862;19.378;2024-03-17T04:01:50;9.20;;;4.00;;
58784;SDS011;44557;51.862;19.378;2024-03-17T04:04:12;12.40;;;4.10;;
58784;SDS011;44557;51.862;19.378;2024-03-17T04:06:34;12.40;;;4.70;;
58784;SDS011;44557;51.862;19.378;2024-03-17T04:09:15;12.00;;;4.60;;
58784;SDS011;44557;51.862;19.378;2024-03-17T04:11:37;11.10;;;4.90;;
58784;SDS011;44557;51.862;19.378;2024-03-17T04:13:59;10.90;;;4.50;;
58784;SDS011;44557;51.862;19.378;2024-03-17T04:16:21;10.60;;;4.40;;
58784;SDS011;44557;51.862;19.378;2024-03-17T04:18:43;10.60;;;3.80;;
58784;SDS011;44557;51.862;19.378;2024-03-17T04:21:05;10.50;;;4.50;;
58784;SDS011;44557;51.862;19.378;2024-03-17T04:23:26;10.20;;;4.20;;
58784;SDS011;44557;51.862;19.378;2024-03-17T04:25:50;11.80;;;3.90;;
58784;SDS011;44557;51.862;19.378;2024-03-17T04:28:14;10.20;;;3.80;;
58784;SDS011;44557;51.862;19.378;2024-03-17T04:30:35;11.70;;;4.40;;
58784;SDS011;44557;51.862;19.378;2024-03-17T04:32:57;11.50;;;4.30;;
58784;SDS011;44557;51.862;19.378;2024-03-17T04:35:19;10.60;;;3.90;;
58784;SDS011;44557;51.862;19.378;2024-03-17T04:37:34;11.90;;;4.20;;
58784;SDS011;44557;51.862;19.378;2024-03-17T04:39:56;9.90;;;3.60;;
58784;SDS011;44557;51.862;19.378;2024-03-17T04:42:18;12.20;;;4.50;;
58784;SDS011;44557;51.862;19.378;2024-03-17T04:44:41;10.70;;;4.00;;
58784;SDS011;44557;51.862;19.378;2024-03-17T04:47:01;11.30;;;4.00;;
58784;SDS011;44557;51.862;19.378;2024-03-17T04:49:26;10.70;;;4.20;;
58784;SDS011;44557;51.862;19.378;2024-03-17T04:51:48;9.40;;;3.90;;
58784;SDS011;44557;51.862;19.378;2024-03-17T04:54:12;13.00;;;4.40;;
58784;SDS011;44557;51.862;19.378;2024-03-17T04:56:34;10.60;;;3.70;;
58784;SDS011;44557;51.862;19.378;2024-03-17T04:58:52;12.30;;;4.10;;
58784;SDS011;44557;51.862;19.378;2024-03-17T05:01:14;11.40;;;4.00;;
58784;SDS011;44557;51.862;19.378;2024-03-17T05:03:36;10.10;;;3.80;;
58784;SDS011;44557;51.862;19.378;2024-03-17T05:05:59;10.20;;;4.00;;
58784;SDS011;44557;51.862;19.378;2024-03-17T05:08:22;9.60;;;4.30;;
58784;SDS011;44557;51.862;19.378;2024-03-17T05:10:42;11.90;;;4.00;;
58784;SDS011;44557;51.862;19.378;2024-03-17T05:13:06;10.20;;;3.80;;
58784;SDS011;44557;51.862;19.378;2024-03-17T05:15:28;11.30;;;3.80;;
58784;SDS011;44557;51.862;19.378;2024-03-17T05:17:50;10.30;;;4.00;;
58784;SDS011;44557;51.862;19.378;2024-03-17T06:23:07;10.40;;;3.80;;
58784;SDS011;44557;51.862;19.378;2024-03-17T06:25:29;9.20;;;3.50;;
58784;SDS011;44557;51.862;19.378;2024-03-17T06:27:51;10.90;;;3.50;;
58784;SDS011;44557;51.862;19.378;2024-03-17T06:30:13;9.80;;;3.50;;
58784;SDS011;44557;51.862;19.378;2024-03-17T06:32:35;10.90;;;4.10;;
58784;SDS011;44557;51.862;19.378;2024-03-17T06:34:56;11.10;;;4.00;;
58784;SDS011;44557;51.862;19.378;2024-03-17T06:37:18;11.80;;;4.00;;
58784;SDS011;44557;51.862;19.378;2024-03-17T06:39:39;10.20;;;3.50;;
58784;SDS011;44557;51.862;19.378;2024-03-17T06:42:01;13.30;;;4.10;;
58784;SDS011;44557;51.862;19.378;2024-03-17T06:44:23;11.60;;;3.70;;
58784;SDS011;44557;51.862;19.378;2024-03-17T06:46:45;12.70;;;4.00;;
58784;SDS011;44557;51.862;19.378;2024-03-17T06:49:06;12.00;;;4.30;;
58784;SDS011;44557;51.862;19.378;2024-03-17T06:51:28;12.00;;;4.20;;
58784;SDS011;44557;51.862;19.378;2024-03-17T06:53:50;10.70;;;3.90;;
58784;SDS011;44557;51.862;19.378;2024-03-17T06:56:12;12.90;;;3.80;;
58784;SDS011;44557;51.862;19.378;2024-03-17T06:58:53;13.80;;;4.50;;
58784;SDS011;44557;51.862;19.378;2024-03-17T07:01:15;11.30;;;4.00;;
58784;SDS011;44557;51.862;19.378;2024-03-17T07:03:37;10.40;;;3.70;;
58784;SDS011;44557;51.862;19.378;2024-03-17T07:06:02;10.90;;;4.10;;
58784;SDS011;44557;51.862;19.378;2024-03-17T07:08:24;12.70;;;3.60;;
58784;SDS011;44557;51.862;19.378;2024-03-17T07:11:02;11.60;;;3.60;;
58784;SDS011;44557;51.862;19.378;2024-03-17T07:13:23;11.40;;;3.60;;
58784;SDS011;44557;51.862;19.378;2024-03-17T07:15:48;10.20;;;3.30;;
58784;SDS011;44557;51.862;19.378;2024-03-17T07:18:10;10.60;;;3.60;;
58784;SDS011;44557;51.862;19.378;2024-03-17T07:20:32;12.40;;;3.80;;
58784;SDS011;44557;51.862;19.378;2024-03-17T07:22:54;9.60;;;3.00;;
58784;SDS011;44557;51.862;19.378;2024-03-17T07:25:16;9.40;;;2.90;;
58784;SDS011;44557;51.862;19.378;2024-03-17T07:27:38;8.90;;;2.80;;
58784;SDS011;44557;51.862;19.378;2024-03-17T07:30:00;8.80;;;2.90;;
58784;SDS011;44557;51.862;19.378;2024-03-17T07:32:22;12.40;;;3.40;;
58784;SDS011;44557;51.862;19.378;2024-03-17T07:34:44;15.30;;;7.50;;
58784;SDS011;44557;51.862;19.378;2024-03-17T07:37:06;8.00;;;3.00;;
58784;SDS011;44557;51.862;19.378;2024-03-17T07:42:01;12.50;;;2.80;;
58784;SDS011;44557;51.862;19.378;2024-03-17T07:44:20;7.90;;;2.70;;
58784;SDS011;44557;51.862;19.378;2024-03-17T07:47:03;11.10;;;2.50;;
58784;SDS011;44557;51.862;19.378;2024-03-17T07:49:18;7.90;;;2.40;;
58784;SDS011;44557;51.862;19.378;2024-03-17T07:52:02;13.10;;;3.00;;
58784;SDS011;44557;51.862;19.378;2024-03-17T07:54:16;8.20;;;2.40;;
58784;SDS011;44557;51.862;19.378;2024-03-17T07:56:38;8.50;;;2.70;;
58784;SDS011;44557;51.862;19.378;2024-03-17T08:01:37;7.90;;;2.60;;
58784;SDS011;44557;51.862;19.378;2024-03-17T08:03:59;8.10;;;2.30;;
58784;SDS011;44557;51.862;19.378;2024-03-17T08:06:40;9.50;;;2.50;;
58784;SDS011;44557;51.862;19.378;2024-03-17T08:09:04;10.60;;;2.50;;
58784;SDS011;44557;51.862;19.378;2024-03-17T09:17:13;9.10;;;2.60;;
58784;SDS011;44557;51.862;19.378;2024-03-17T09:19:21;7.50;;;2.50;;
58784;SDS011;44557;51.862;19.378;2024-03-17T09:21:55;8.40;;;2.60;;
58784;SDS011;44557;51.862;19.378;2024-03-17T09:24:33;9.00;;;2.60;;
58784;SDS011;44557;51.862;19.378;2024-03-17T09:26:48;7.80;;;2.70;;
58784;SDS011;44557;51.862;19.378;2024-03-17T09:29:03;8.80;;;2.80;;
58784;SDS011;44557;51.862;19.378;2024-03-17T09:31:18;10.70;;;3.20;;
58784;SDS011;44557;51.862;19.378;2024-03-17T09:33:33;8.00;;;3.40;;
58784;SDS011;44557;51.862;19.378;2024-03-17T09:35:58;10.80;;;3.10;;
58784;SDS011;44557;51.862;19.378;2024-03-17T09:38:40;11.50;;;3.70;;
58784;SDS011;44557;51.862;19.378;2024-03-17T09:40:55;10.50;;;3.40;;
58784;SDS011;44557;51.862;19.378;2024-03-17T09:43:10;8.70;;;2.90;;
58784;SDS011;44557;51.862;19.378;2024-03-17T09:45:24;8.40;;;3.20;;
58784;SDS011;44557;51.862;19.378;2024-03-17T09:47:39;11.80;;;3.90;;
58784;SDS011;44557;51.862;19.378;2024-03-17T09:52:25;9.70;;;3.20;;
58784;SDS011;44557;51.862;19.378;2024-03-17T09:54:46;10.40;;;3.50;;
58784;SDS011;44557;51.862;19.378;2024-03-17T10:10:15;11.20;;;3.90;;
58784;SDS011;44557;51.862;19.378;2024-03-17T10:12:36;8.40;;;3.50;;
58784;SDS011;44557;51.862;19.378;2024-03-17T10:15:00;8.40;;;3.50;;
58784;SDS011;44557;51.862;19.378;2024-03-17T10:53:53;7.60;;;2.70;;
58784;SDS011;44557;51.862;19.378;2024-03-17T11:20:15;9.20;;;4.40;;
58784;SDS011;44557;51.862;19.378;2024-03-17T11:27:40;9.50;;;3.30;;
58784;SDS011;44557;51.862;19.378;2024-03-17T11:45:54;6.10;;;2.30;;
58784;SDS011;44557;51.862;19.378;2024-03-17T11:50:36;4.20;;;2.00;;
58784;SDS011;44557;51.862;19.378;2024-03-17T11:53:27;5.00;;;2.00;;
58784;SDS011;44557;51.862;19.378;2024-03-17T11:56:11;5.20;;;2.10;;
58784;SDS011;44557;51.862;19.378;2024-03-17T11:58:27;5.40;;;1.80;;
58784;SDS011;44557;51.862;19.378;2024-03-17T12:00:42;4.70;;;1.90;;
58784;SDS011;44557;51.862;19.378;2024-03-17T12:03:25;4.60;;;1.90;;
58784;SDS011;44557;51.862;19.378;2024-03-17T12:05:40;6.40;;;2.30;;
58784;SDS011;44557;51.862;19.378;2024-03-17T12:07:55;5.30;;;2.20;;
58784;SDS011;44557;51.862;19.378;2024-03-17T12:10:10;5.10;;;1.90;;
58784;SDS011;44557;51.862;19.378;2024-03-17T12:24:54;4.40;;;1.70;;
58784;SDS011;44557;51.862;19.378;2024-03-17T12:27:13;3.80;;;1.70;;
58784;SDS011;44557;51.862;19.378;2024-03-17T12:32:18;5.80;;;2.00;;
58784;SDS011;44557;51.862;19.378;2024-03-17T12:34:38;5.70;;;2.10;;
58784;SDS011;44557;51.862;19.378;2024-03-17T12:42:11;5.80;;;2.50;;
58784;SDS011;44557;51.862;19.378;2024-03-17T12:44:48;5.50;;;2.60;;
58784;SDS011;44557;51.862;19.378;2024-03-17T12:47:02;5.00;;;2.20;;
58784;SDS011;44557;51.862;19.378;2024-03-17T12:52:18;5.40;;;2.50;;
58784;SDS011;44557;51.862;19.378;2024-03-17T12:59:40;4.90;;;2.10;;
58784;SDS011;44557;51.862;19.378;2024-03-17T13:02:00;4.10;;;2.10;;
58784;SDS011;44557;51.862;19.378;2024-03-17T13:04:28;3.70;;;2.00;;
58784;SDS011;44557;51.862;19.378;2024-03-17T13:06:51;5.40;;;1.90;;
58784;SDS011;44557;51.862;19.378;2024-03-17T13:09:13;5.00;;;2.30;;
58784;SDS011;44557;51.862;19.378;2024-03-17T13:11:35;4.10;;;1.70;;
58784;SDS011;44557;51.862;19.378;2024-03-17T13:13:57;5.80;;;2.10;;
58784;SDS011;44557;51.862;19.378;2024-03-17T13:16:40;4.40;;;2.00;;
58784;SDS011;44557;51.862;19.378;2024-03-17T13:19:25;6.20;;;2.10;;
58784;SDS011;44557;51.862;19.378;2024-03-17T13:21:40;5.60;;;2.20;;
58784;SDS011;44557;51.862;19.378;2024-03-17T13:23:55;5.00;;;2.40;;
58784;SDS011;44557;51.862;19.378;2024-03-17T13:26:10;5.90;;;2.60;;
58784;SDS011;44557;51.862;19.378;2024-03-17T13:28:25;5.00;;;2.00;;
58784;SDS011;44557;51.862;19.378;2024-03-17T13:30:47;5.90;;;2.50;;
58784;SDS011;44557;51.862;19.378;2024-03-17T13:33:24;5.00;;;2.20;;
58784;SDS011;44557;51.862;19.378;2024-03-17T13:35:40;7.10;;;2.40;;
58784;SDS011;44557;51.862;19.378;2024-03-17T13:37:55;5.40;;;2.20;;
58784;SDS011;44557;51.862;19.378;2024-03-17T13:40:10;6.10;;;2.30;;
58784;SDS011;44557;51.862;19.378;2024-03-17T13:42:54;5.80;;;2.40;;
58784;SDS011;44557;51.862;19.378;2024-03-17T13:45:09;4.90;;;2.50;;
58784;SDS011;44557;51.862;19.378;2024-03-17T13:47:55;4.90;;;2.30;;
58784;SDS011;44557;51.862;19.378;2024-03-17T13:52:50;4.80;;;2.30;;
58784;SDS011;44557;51.862;19.378;2024-03-17T13:55:05;4.10;;;2.00;;
58784;SDS011;44557;51.862;19.378;2024-03-17T13:57:27;4.00;;;1.80;;
58784;SDS011;44557;51.862;19.378;2024-03-17T13:59:49;5.50;;;2.10;;
58784;SDS011;44557;51.862;19.378;2024-03-17T14:02:12;5.30;;;2.10;;
58784;SDS011;44557;51.862;19.378;2024-03-17T14:04:37;4.10;;;2.00;;
58784;SDS011;44557;51.862;19.378;2024-03-17T14:07:00;4.60;;;1.90;;
58784;SDS011;44557;51.862;19.378;2024-03-17T14:09:22;4.40;;;1.70;;
58784;SDS011;44557;51.862;19.378;2024-03-17T14:12:02;4.20;;;1.60;;
58784;SDS011;44557;51.862;19.378;2024-03-17T14:14:42;3.60;;;1.70;;
58784;SDS011;44557;51.862;19.378;2024-03-17T14:19:49;4.00;;;1.60;;
58784;SDS011;44557;51.862;19.378;2024-03-17T14:22:11;4.70;;;1.60;;
58784;SDS011;44557;51.862;19.378;2024-03-17T14:24:32;5.30;;;1.80;;
58784;SDS011;44557;51.862;19.378;2024-03-17T14:47:52;5.20;;;2.10;;
58784;SDS011;44557;51.862;19.378;2024-03-17T14:55:31;4.70;;;2.10;;
58784;SDS011;44557;51.862;19.378;2024-03-17T14:57:56;5.50;;;2.20;;
58784;SDS011;44557;51.862;19.378;2024-03-17T15:05:51;4.80;;;1.80;;
58784;SDS011;44557;51.862;19.378;2024-03-17T15:36:57;3.50;;;1.80;;
58784;SDS011;44557;51.862;19.378;2024-03-17T15:39:19;4.50;;;1.80;;
58784;SDS011;44557;51.862;19.378;2024-03-17T15:44:41;3.10;;;1.50;;
58784;SDS011;44557;51.862;19.378;2024-03-17T15:50:02;2.90;;;1.80;;
58784;SDS011;44557;51.862;19.378;2024-03-17T15:52:19;2.90;;;1.50;;
58784;SDS011;44557;51.862;19.378;2024-03-17T15:57:22;3.20;;;1.60;;
58784;SDS011;44557;51.862;19.378;2024-03-17T15:59:39;3.60;;;1.80;;
58784;SDS011;44557;51.862;19.378;2024-03-17T16:02:25;4.00;;;2.20;;
58784;SDS011;44557;51.862;19.378;2024-03-17T16:09:57;4.20;;;2.00;;
58784;SDS011;44557;51.862;19.378;2024-03-17T16:12:36;4.30;;;2.20;;
58784;SDS011;44557;51.862;19.378;2024-03-17T16:15:17;4.30;;;2.10;;
58784;SDS011;44557;51.862;19.378;2024-03-17T16:23:06;5.10;;;2.30;;
58784;SDS011;44557;51.862;19.378;2024-03-17T16:35:58;5.30;;;2.10;;
58784;SDS011;44557;51.862;19.378;2024-03-17T16:38:23;4.60;;;2.00;;
58784;SDS011;44557;51.862;19.378;2024-03-17T16:41:02;4.30;;;1.90;;
58784;SDS011;44557;51.862;19.378;2024-03-17T16:45:44;3.60;;;1.90;;
58784;SDS011;44557;51.862;19.378;2024-03-17T16:47:59;5.40;;;2.30;;
58784;SDS011;44557;51.862;19.378;2024-03-17T16:50:14;10.60;;;4.40;;
58784;SDS011;44557;51.862;19.378;2024-03-17T16:57:34;11.10;;;5.20;;
58784;SDS011;44557;51.862;19.378;2024-03-17T20:33:16;5.30;;;2.50;;
58784;SDS011;44557;51.862;19.378;2024-03-17T20:35:38;6.20;;;2.40;;
58784;SDS011;44557;51.862;19.378;2024-03-17T20:43:13;6.10;;;2.50;;
58784;SDS011;44557;51.862;19.378;2024-03-17T20:45:36;6.50;;;2.80;;
58784;SDS011;44557;51.862;19.378;2024-03-17T20:47:56;7.80;;;3.00;;
58784;SDS011;44557;51.862;19.378;2024-03-17T20:50:19;5.80;;;2.80;;
58784;SDS011;44557;51.862;19.378;2024-03-17T20:52:44;5.80;;;2.40;;
58784;SDS011;44557;51.862;19.378;2024-03-17T20:55:05;7.50;;;3.00;;
58784;SDS011;44557;51.862;19.378;2024-03-17T21:05:18;6.00;;;2.80;;
58784;SDS011;44557;51.862;19.378;2024-03-17T21:07:42;5.40;;;2.60;;
58784;SDS011;44557;51.862;19.378;2024-03-17T21:10:04;6.70;;;2.70;;
58784;SDS011;44557;51.862;19.378;2024-03-17T21:12:49;5.30;;;2.60;;
58784;SDS011;44557;51.862;19.378;2024-03-17T21:15:07;5.60;;;2.40;;
58784;SDS011;44557;51.862;19.378;2024-03-17T21:17:17;6.30;;;3.00;;
58784;SDS011;44557;51.862;19.378;2024-03-17T21:19:31;6.90;;;3.20;;
58784;SDS011;44557;51.862;19.378;2024-03-17T21:21:46;8.20;;;3.50;;
58784;SDS011;44557;51.862;19.378;2024-03-17T21:24:33;7.00;;;3.30;;
58784;SDS011;44557;51.862;19.378;2024-03-17T21:26:57;7.00;;;3.50;;
58784;SDS011;44557;51.862;19.378;2024-03-17T21:39:08;6.70;;;3.10;;
58784;SDS011;44557;51.862;19.378;2024-03-17T21:41:23;6.80;;;2.80;;
58784;SDS011;44557;51.862;19.378;2024-03-17T21:43:41;6.50;;;3.00;;
58784;SDS011;44557;51.862;19.378;2024-03-17T21:45:58;6.20;;;2.50;;
